Pagrindinis puslapis
METAR-TAF:

METAR-TAF

Oro uostai :

Korumba, Pietų Mato Grosas, Brazilija

platuma: 19-05S, ilguma: 057-30W, Aukštis: 130 m

Dabartinis oras

Ataskaita buvo paskelbta 12 valandos ir 2 minutes, ne 21:00 UTC
Vėjas 3 kt iš Šiaurės Vakarų
Temperatūra 29°C
Drėgmė 45%
Slėgis 1006 hPa
Matomumas: 8000 m

METAR: SBCR 172100Z 32003KT 8000 NSC 29/16 Q1006

Laikas: 05:02 (09:02 UTC)

Prognozė

Ataskaita buvo paskelbta 5 valandos ir 2 minutes, ne 04:00 UTC
Prognozė galioja nuo 18 metu 06 UTC su 19 metu 06 UTC
Vėjas 10 kt iš Pietvakarių
Matomumas: 7000 m
Tikimybė 40%
nuo 18 metu 06 UTC su 18 metu 11 UTC
Matomumas: 4000 m
dūmai

TAF: SBCR 180400Z 1806/1906 22010KT 7000 NSC TX29/1818Z TN20/1906Z PROB40 1806/1811 4000 FU RMK PDU

Orai ataskaitas ir orų prognozės (METAR, TAF).

turimą stotys yra geltonos ir raudonos taškus žemėlapyje.

Perkelti pele per norėdami pamatyti stoties vardą.

Tada spustelėkite, norėdami matyti oro stebėjimo ir prognozės.

Norėdami pakeisti žemėlapį: spustelėkite ant žalios mygtukų su juodo kryžiaus žemyn,; žalią mygtuką su brūkšneliu, jei norite nutolinti; arba žalių rodyklių gretimoms žemėlapius.


METAR-TAF: